COOK73 UNOO-ZBLA

Flight info

Callsign COOK73
Flight time 4h 2m
Altitude 37000
Route KOVEN6C KOVEN B234 SZ B926 KESED B151 RO A817 NERKA B478 KTN A91 AGINO A810 TELOK A345 KAGAK KAG01A
Aircraft C25C/M-SDE2E3FGHRWXY/LB1

Departure

Time 2026-04-15 20:13
Airport Omsk Central Airport (UNOO)

Arrival

Time 2026-04-16 00:16
Airport Hulunbuir Hailar Airport (ZBLA)
Time Latitude Longitude Altitude Speed Heading
2026-04-15 19:45 54.96121 73.31722 304 ft 0 kts 133°
2026-04-15 19:51 54.96111 73.31739 306 ft 4 kts 145°
2026-04-15 19:51 54.96084 73.31750 304 ft 4 kts 192°
2026-04-15 19:52 54.96062 73.31721 304 ft 4 kts 223°
2026-04-15 19:52 54.96041 73.31683 305 ft 5 kts 225°
2026-04-15 19:52 54.96016 73.31639 305 ft 5 kts 227°
2026-04-15 19:52 54.95990 73.31590 305 ft 6 kts 227°
2026-04-15 19:53 54.95961 73.31537 305 ft 6 kts 226°
2026-04-15 19:53 54.95930 73.31480 306 ft 7 kts 226°
2026-04-15 19:53 54.95896 73.31420 306 ft 7 kts 225°
2026-04-15 19:53 54.95860 73.31355 306 ft 8 kts 226°
2026-04-15 19:54 54.95822 73.31286 307 ft 8 kts 226°
2026-04-15 19:54 54.95782 73.31214 307 ft 8 kts 226°
2026-04-15 19:54 54.95740 73.31138 307 ft 9 kts 226°
2026-04-15 19:54 54.95697 73.31060 308 ft 9 kts 227°
2026-04-15 19:55 54.95672 73.30959 308 ft 9 kts 265°
2026-04-15 19:55 54.95692 73.30856 309 ft 9 kts 313°
2026-04-15 19:55 54.95742 73.30783 309 ft 9 kts 322°
2026-04-15 19:55 54.95793 73.30711 309 ft 10 kts 321°
2026-04-15 19:56 54.95845 73.30637 309 ft 10 kts 320°
2026-04-15 19:56 54.95899 73.30563 309 ft 10 kts 322°
2026-04-15 19:56 54.95953 73.30488 310 ft 10 kts 322°
2026-04-15 19:56 54.96007 73.30411 310 ft 10 kts 320°
2026-04-15 19:57 54.96060 73.30337 310 ft 9 kts 321°
2026-04-15 19:57 54.96109 73.30267 310 ft 9 kts 322°
2026-04-15 19:57 54.96160 73.30208 310 ft 8 kts 327°
2026-04-15 19:57 54.96181 73.30125 311 ft 8 kts 264°
2026-04-15 19:58 54.96169 73.30036 311 ft 8 kts 256°
2026-04-15 19:58 54.96157 73.29947 312 ft 8 kts 256°
2026-04-15 19:58 54.96143 73.29847 312 ft 9 kts 258°
2026-04-15 19:58 54.96128 73.29726 312 ft 11 kts 257°
2026-04-15 19:59 54.96110 73.29589 313 ft 12 kts 259°
2026-04-15 19:59 54.96089 73.29438 314 ft 13 kts 256°
2026-04-15 19:59 54.96090 73.29297 314 ft 12 kts 312°
2026-04-15 19:59 54.96162 73.29255 314 ft 11 kts 347°
2026-04-15 20:00 54.96177 73.29249 314 ft 0 kts 347°
2026-04-15 20:00 54.96198 73.29241 314 ft 7 kts 347°
2026-04-15 20:00 54.96246 73.29222 314 ft 7 kts 347°
2026-04-15 20:01 54.96299 73.29201 314 ft 8 kts 347°
2026-04-15 20:01 54.96356 73.29178 315 ft 9 kts 347°
2026-04-15 20:01 54.96415 73.29155 315 ft 9 kts 347°
2026-04-15 20:01 54.96448 73.29147 315 ft 4 kts
2026-04-15 20:02 54.96467 73.29182 315 ft 4 kts 75°
2026-04-15 20:02 54.96468 73.29192 314 ft 0 kts 80°
2026-04-15 20:03 54.96504 73.29460 315 ft 60 kts 77°
2026-04-15 20:03 54.96651 73.30607 357 ft 119 kts 81°
2026-04-15 20:04 54.96121 73.31722 304 ft 0 kts 133°
2026-04-15 20:08 54.96121 73.31723 304 ft 0 kts 133°
2026-04-15 20:08 54.96090 73.31751 304 ft 11 kts 183°
2026-04-15 20:08 54.96009 73.31626 305 ft 21 kts 226°
2026-04-15 20:09 54.95888 73.31403 306 ft 30 kts 226°
2026-04-15 20:09 54.95748 73.31151 307 ft 28 kts 226°
2026-04-15 20:09 54.95683 73.30881 309 ft 24 kts 301°
2026-04-15 20:09 54.95803 73.30696 309 ft 22 kts 321°
2026-04-15 20:10 54.95916 73.30538 309 ft 20 kts 321°
2026-04-15 20:10 54.96025 73.30388 310 ft 19 kts 321°
2026-04-15 20:10 54.96128 73.30249 310 ft 18 kts 325°
2026-04-15 20:10 54.96175 73.30073 311 ft 17 kts 257°
2026-04-15 20:11 54.96149 73.29877 312 ft 16 kts 257°
2026-04-15 20:11 54.96123 73.29688 313 ft 16 kts 257°
2026-04-15 20:11 54.96099 73.29507 313 ft 15 kts 257°
2026-04-15 20:11 54.96080 73.29333 314 ft 14 kts 277°
2026-04-15 20:12 54.96157 73.29254 314 ft 13 kts 347°
2026-04-15 20:12 54.96249 73.29219 314 ft 14 kts 347°
2026-04-15 20:12 54.96354 73.29176 315 ft 17 kts 347°
2026-04-15 20:12 54.96460 73.29167 315 ft 15 kts 46°
2026-04-15 20:13 54.96517 73.29540 315 ft 66 kts 77°
2026-04-15 20:13 54.96681 73.30743 492 ft 119 kts 76°
2026-04-15 20:13 54.96885 73.32146 1229 ft 138 kts 71°
2026-04-15 20:13 54.97116 73.33992 1889 ft 172 kts 74°
2026-04-15 20:14 54.97402 73.36151 2752 ft 187 kts 73°
2026-04-15 20:14 54.97694 73.38372 3978 ft 190 kts 73°
2026-04-15 20:14 54.97999 73.40670 5131 ft 198 kts 72°
2026-04-15 20:14 54.98313 73.43038 6319 ft 204 kts 72°
2026-04-15 20:15 54.98637 73.45474 7432 ft 209 kts 72°
2026-04-15 20:15 54.98969 73.47977 8513 ft 215 kts 71°
2026-04-15 20:15 54.99302 73.50519 9596 ft 220 kts 71°
2026-04-15 20:15 54.99618 73.53174 10648 ft 228 kts 76°
2026-04-15 20:16 54.99849 73.55950 11628 ft 234 kts 76°
2026-04-15 20:16 55.00092 73.58794 12586 ft 241 kts 76°
2026-04-15 20:16 55.00345 73.61715 13543 ft 247 kts 76°
2026-04-15 20:16 55.00602 73.64721 14410 ft 253 kts 76°
2026-04-15 20:17 55.00866 73.67788 15200 ft 259 kts 76°
2026-04-15 20:17 55.01132 73.70928 15991 ft 265 kts 76°
2026-04-15 20:17 55.01404 73.74141 16799 ft 271 kts 76°
2026-04-15 20:17 55.01679 73.77378 17615 ft 277 kts 76°
2026-04-15 20:18 55.01963 73.80777 18476 ft 283 kts 76°
2026-04-15 20:18 55.02250 73.84159 19216 ft 289 kts 77°
2026-04-15 20:18 55.02543 73.87662 20000 ft 295 kts 77°
2026-04-15 20:18 55.02840 73.91248 20805 ft 302 kts 77°
2026-04-15 20:19 55.03146 73.94911 21603 ft 309 kts 77°
2026-04-15 20:19 55.03457 73.98651 22358 ft 315 kts 77°
2026-04-15 20:19 55.03769 74.02476 23088 ft 322 kts 77°
2026-04-15 20:19 55.04091 74.06374 23795 ft 328 kts 77°
2026-04-15 20:20 55.04423 74.10338 24371 ft 333 kts 77°
2026-04-15 20:20 55.04803 74.14344 24961 ft 337 kts 76°
2026-04-15 20:20 55.05187 74.18424 25541 ft 342 kts 77°
2026-04-15 20:20 55.05558 74.22543 26117 ft 346 kts 77°
2026-04-15 20:21 55.05931 74.26727 26686 ft 351 kts 77°
2026-04-15 20:21 55.06310 74.30960 27244 ft 355 kts 77°
2026-04-15 20:21 55.06697 74.35245 27797 ft 360 kts 78°
2026-04-15 20:21 55.07083 74.39585 28330 ft 364 kts 78°
2026-04-15 20:22 55.07467 74.43920 28895 ft 367 kts 78°
2026-04-15 20:22 55.07857 74.48330 29514 ft 368 kts 78°
2026-04-15 20:22 55.08246 74.52753 30112 ft 369 kts 78°
2026-04-15 20:22 55.08635 74.57184 30644 ft 369 kts 78°
2026-04-15 20:23 55.09021 74.61609 31182 ft 368 kts 78°
2026-04-15 20:23 55.09404 74.66018 31723 ft 367 kts 78°
2026-04-15 20:23 55.09784 74.70423 32258 ft 365 kts 77°
2026-04-15 20:23 55.10162 74.74795 32794 ft 364 kts 77°
2026-04-15 20:24 55.10545 74.79273 33348 ft 362 kts 77°
2026-04-15 20:24 55.11286 74.87956 34394 ft 360 kts 76°
2026-04-15 20:24 55.11527 74.90811 34691 ft 358 kts 77°
2026-04-15 20:25 55.11888 74.95103 35156 ft 356 kts 77°
2026-04-15 20:25 55.12247 74.99372 35619 ft 354 kts 77°
2026-04-15 20:25 55.12603 75.03609 36062 ft 351 kts 77°
2026-04-15 20:25 55.13067 75.09182 36641 ft 349 kts 77°
2026-04-15 20:26 55.13413 75.13371 37059 ft 347 kts 78°
2026-04-15 20:26 55.13650 75.16212 37171 ft 353 kts 78°
2026-04-15 20:26 55.14007 75.20530 37222 ft 364 kts 78°
2026-04-15 20:26 55.14373 75.24993 37232 ft 377 kts 78°
2026-04-15 20:27 55.14743 75.29540 37230 ft 388 kts 78°
2026-04-15 20:27 55.15125 75.34278 37233 ft 400 kts 78°
2026-04-15 20:27 55.15519 75.39147 37233 ft 410 kts 79°
2026-04-15 20:28 55.16328 75.49270 37227 ft 429 kts 79°
2026-04-15 20:28 55.17163 75.59819 37228 ft 445 kts 79°
2026-04-15 20:29 55.18014 75.70668 37225 ft 453 kts 79°
2026-04-15 20:29 55.18884 75.81572 37221 ft 457 kts 79°
2026-04-15 20:30 55.19743 75.92625 37228 ft 460 kts 79°
2026-04-15 20:30 55.20603 76.03757 37222 ft 462 kts 80°
2026-04-15 20:31 55.21454 76.14946 37215 ft 465 kts 80°
2026-04-15 20:31 55.22301 76.26201 37218 ft 466 kts 80°
2026-04-15 20:32 55.23140 76.37485 37224 ft 468 kts 80°
2026-04-15 20:32 55.23970 76.48806 37216 ft 469 kts 80°
2026-04-15 20:33 55.24789 76.60121 37215 ft 470 kts 80°
2026-04-15 20:33 55.25602 76.71501 37211 ft 471 kts 81°
2026-04-15 20:34 55.26402 76.82907 37210 ft 472 kts 81°
2026-04-15 20:34 55.27185 76.94343 37202 ft 472 kts 81°
2026-04-15 20:35 55.27964 77.05791 37208 ft 473 kts 81°
2026-04-15 20:35 55.28730 77.17263 37206 ft 473 kts 81°
2026-04-15 20:36 55.29487 77.28737 37202 ft 474 kts 81°
2026-04-15 20:36 55.30231 77.40232 37198 ft 474 kts 81°
2026-04-15 20:37 55.31010 77.52373 37196 ft 475 kts 82°
2026-04-15 20:37 55.31731 77.63870 37194 ft 475 kts 81°
2026-04-15 20:38 55.32443 77.75339 37190 ft 475 kts 82°
2026-04-15 20:38 55.33147 77.86876 37187 ft 475 kts 82°
2026-04-15 20:39 55.33844 77.98458 37186 ft 476 kts 82°
2026-04-15 20:39 55.34525 78.10015 37184 ft 476 kts 82°
2026-04-15 20:40 55.35198 78.21599 37179 ft 476 kts 82°
2026-04-15 20:40 55.35570 78.33231 37179 ft 478 kts 92°
2026-04-15 20:41 55.35081 78.44836 37175 ft 479 kts 94°
2026-04-15 20:41 55.34581 78.56509 37170 ft 479 kts 94°
2026-04-15 20:42 55.34065 78.68181 37168 ft 479 kts 94°
2026-04-15 20:42 55.33539 78.79869 37166 ft 479 kts 94°
2026-04-15 20:43 55.33001 78.91549 37164 ft 480 kts 94°
2026-04-15 20:43 55.32452 79.03218 37159 ft 480 kts 94°
2026-04-15 20:44 55.31895 79.14824 37155 ft 480 kts 94°
2026-04-15 20:44 55.31324 79.26503 37157 ft 480 kts 94°
2026-04-15 20:45 55.30741 79.38184 37151 ft 480 kts 94°
2026-04-15 20:45 55.30146 79.49872 37149 ft 480 kts 94°
2026-04-15 20:46 55.29539 79.61571 37149 ft 481 kts 95°
2026-04-15 20:46 55.28922 79.73256 37140 ft 481 kts 95°
2026-04-15 20:47 55.28299 79.84856 37138 ft 481 kts 95°
2026-04-15 20:47 55.27660 79.96540 37136 ft 481 kts 95°
2026-04-15 20:48 55.27009 80.08223 37130 ft 481 kts 95°
2026-04-15 20:48 55.26347 80.19905 37128 ft 481 kts 95°
2026-04-15 20:49 55.25672 80.31578 37124 ft 481 kts 95°
2026-04-15 20:49 55.24989 80.43252 37122 ft 481 kts 95°
2026-04-15 20:50 55.24293 80.54933 37117 ft 481 kts 95°
2026-04-15 20:50 55.23586 80.66595 37107 ft 481 kts 95°
2026-04-15 20:51 55.22871 80.78198 37110 ft 482 kts 96°
2026-04-15 20:51 55.22140 80.89872 37105 ft 482 kts 96°
2026-04-15 20:52 55.21400 81.01539 37101 ft 482 kts 96°
2026-04-15 20:52 55.20647 81.13219 37095 ft 482 kts 96°
2026-04-15 20:53 55.19882 81.24885 37096 ft 482 kts 96°
2026-04-15 20:53 55.19106 81.36556 37090 ft 483 kts 96°
2026-04-15 20:54 55.18317 81.48226 37087 ft 483 kts 96°
2026-04-15 20:54 55.17519 81.59904 37081 ft 483 kts 96°
2026-04-15 20:55 55.16713 81.71494 37080 ft 483 kts 96°
2026-04-15 20:55 55.15891 81.83156 37078 ft 483 kts 97°
2026-04-15 20:56 55.15057 81.94830 37074 ft 484 kts 97°
2026-04-15 20:56 55.14212 82.06493 37066 ft 484 kts 97°
2026-04-15 20:57 55.13357 82.18172 37065 ft 484 kts 97°
2026-04-15 20:57 55.12489 82.29834 37059 ft 484 kts 97°
2026-04-15 20:58 55.11603 82.41512 37056 ft 484 kts 97°
2026-04-15 20:58 55.10678 82.53099 37056 ft 485 kts 98°
2026-04-15 20:59 55.09754 82.64762 37056 ft 485 kts 97°
2026-04-15 20:59 55.08811 82.76426 37054 ft 485 kts 98°
2026-04-15 21:00 55.08061 82.86199 37051 ft 485 kts 94°
2026-04-15 21:00 55.08091 82.93970 37050 ft 483 kts 83°
2026-04-15 21:00 55.08357 82.97826 37049 ft 483 kts 80°
2026-04-15 21:01 55.09174 83.09459 37044 ft 483 kts 81°
2026-04-15 21:01 55.09985 83.21104 37036 ft 483 kts 81°
2026-04-15 21:02 55.10786 83.32759 37032 ft 484 kts 81°
2026-04-15 21:02 55.11575 83.44428 37030 ft 484 kts 81°
2026-04-15 21:03 55.12354 83.56113 37024 ft 484 kts 81°
2026-04-15 21:03 55.13121 83.67795 37013 ft 484 kts 81°
2026-04-15 21:04 55.13879 83.79506 37014 ft 484 kts 81°
2026-04-15 21:04 55.14620 83.91144 37013 ft 485 kts 81°
2026-04-15 21:05 55.15356 84.02872 37004 ft 485 kts 81°
2026-04-15 21:05 55.16079 84.14602 37001 ft 485 kts 82°
2026-04-15 21:06 55.16794 84.26342 36994 ft 485 kts 82°
2026-04-15 21:06 55.17496 84.38108 36986 ft 485 kts 82°
2026-04-15 21:07 55.18187 84.49851 36981 ft 485 kts 82°
2026-04-15 21:07 55.18991 84.61505 36989 ft 485 kts 79°
2026-04-15 21:08 55.19858 84.73207 36988 ft 485 kts 82°
2026-04-15 21:08 55.20513 84.84977 36980 ft 485 kts 82°
2026-04-15 21:09 55.21197 84.96733 36978 ft 485 kts 82°
2026-04-15 21:09 55.21844 85.08511 36967 ft 485 kts 82°
2026-04-15 21:10 55.22493 85.20291 36959 ft 485 kts 82°
2026-04-15 21:10 55.23123 85.32067 36955 ft 485 kts 82°
2026-04-15 21:11 55.23746 85.43865 36948 ft 485 kts 82°
2026-04-15 21:11 55.24352 85.55576 36935 ft 485 kts 83°
2026-04-15 21:12 55.24951 85.67353 36925 ft 485 kts 83°
2026-04-15 21:12 55.25537 85.79129 36923 ft 485 kts 83°
2026-04-15 21:13 55.26114 85.90901 36917 ft 485 kts 83°
2026-04-15 21:13 55.26675 86.02679 36922 ft 485 kts 83°
2026-04-15 21:14 55.27301 86.14438 36929 ft 484 kts 80°
2026-04-15 21:14 55.28120 86.26142 36919 ft 483 kts 81°
2026-04-15 21:15 55.28899 86.37858 36912 ft 483 kts 81°
2026-04-15 21:15 55.29686 86.49585 36910 ft 483 kts 81°
2026-04-15 21:16 55.30446 86.61234 36904 ft 483 kts 81°
2026-04-15 21:16 55.31206 86.72958 36896 ft 483 kts 81°
2026-04-15 21:17 55.31951 86.84685 36890 ft 483 kts 81°
2026-04-15 21:17 55.32688 86.96420 36894 ft 483 kts 81°
2026-04-15 21:18 55.33409 87.08148 36888 ft 483 kts 81°
2026-04-15 21:18 55.34121 87.19878 36882 ft 483 kts 81°
2026-04-15 21:19 55.34821 87.31611 36879 ft 483 kts 81°
2026-04-15 21:19 55.35507 87.43266 36876 ft 483 kts 82°
2026-04-15 21:20 55.36182 87.55001 36870 ft 483 kts 82°
2026-04-15 21:20 55.36852 87.66740 36867 ft 483 kts 82°
2026-04-15 21:21 55.37514 87.78488 36865 ft 482 kts 82°
2026-04-15 21:21 55.38163 87.90244 36863 ft 483 kts 82°
2026-04-15 21:22 55.38802 88.01994 36860 ft 482 kts 82°
2026-04-15 21:22 55.39427 88.13736 36859 ft 482 kts 82°
2026-04-15 21:23 55.40033 88.25398 36857 ft 482 kts 82°
2026-04-15 21:23 55.40640 88.37145 36853 ft 482 kts 82°
2026-04-15 21:24 55.41230 88.48893 36851 ft 482 kts 82°
2026-04-15 21:24 55.41812 88.60648 36849 ft 482 kts 82°
2026-04-15 21:25 55.42380 88.72398 36851 ft 482 kts 82°
2026-04-15 21:25 55.42938 88.84163 36848 ft 482 kts 82°
2026-04-15 21:26 55.43489 88.95939 36838 ft 482 kts 82°
2026-04-15 21:26 55.44038 89.07647 36840 ft 482 kts 83°
2026-04-15 21:27 55.44573 89.19437 36841 ft 482 kts 83°
2026-04-15 21:27 55.45099 89.31211 36835 ft 482 kts 83°
2026-04-15 21:28 55.45613 89.42999 36835 ft 482 kts 83°
2026-04-15 21:28 55.46118 89.54800 36832 ft 482 kts 83°
2026-04-15 21:29 55.46607 89.66520 36827 ft 482 kts 83°
2026-04-15 21:29 55.47089 89.78321 36824 ft 482 kts 83°
2026-04-15 21:30 55.47557 89.90107 36824 ft 482 kts 83°
2026-04-15 21:30 55.48014 90.01905 36824 ft 482 kts 83°
2026-04-15 21:31 55.48679 90.19608 36820 ft 482 kts 83°
2026-04-15 21:32 55.49320 90.37305 36813 ft 482 kts 83°
2026-04-15 21:32 55.49729 90.49035 36812 ft 482 kts 83°
2026-04-15 21:33 55.50130 90.60857 36807 ft 482 kts 84°
2026-04-15 21:33 55.50519 90.72667 36808 ft 482 kts 84°
2026-04-15 21:34 55.50898 90.84475 36809 ft 482 kts 84°
2026-04-15 21:34 55.51264 90.96274 36808 ft 481 kts 84°
2026-04-15 21:35 55.51620 91.08075 36805 ft 481 kts 84°
2026-04-15 21:35 55.51286 91.19907 36796 ft 484 kts 93°
2026-04-15 21:36 55.50664 91.31715 36805 ft 484 kts 94°
2026-04-15 21:36 55.50024 91.43446 36802 ft 483 kts 94°
2026-04-15 21:37 55.49372 91.55261 36800 ft 483 kts 94°
2026-04-15 21:37 55.48709 91.67069 36793 ft 484 kts 94°
2026-04-15 21:38 55.48033 91.78881 36786 ft 484 kts 94°
2026-04-15 21:38 55.47349 91.90668 36795 ft 484 kts 94°
2026-04-15 21:39 55.46649 92.02457 36793 ft 483 kts 94°
2026-04-15 21:39 55.45943 92.14234 36795 ft 483 kts 94°
2026-04-15 21:40 55.45222 92.26031 36800 ft 484 kts 94°
2026-04-15 21:40 55.44492 92.37802 36805 ft 484 kts 95°
2026-04-15 21:41 55.43753 92.49495 36807 ft 484 kts 95°
2026-04-15 21:41 55.43012 92.61257 36812 ft 483 kts 95°
2026-04-15 21:42 55.42264 92.73027 36814 ft 484 kts 95°
2026-04-15 21:42 55.41497 92.84794 36820 ft 484 kts 95°
2026-04-15 21:43 55.40724 92.96556 36822 ft 484 kts 95°
2026-04-15 21:43 55.39938 93.08325 36828 ft 484 kts 95°
2026-04-15 21:44 55.39142 93.20063 36830 ft 483 kts 95°
2026-04-15 21:44 55.38334 93.31798 36839 ft 483 kts 95°
2026-04-15 21:45 55.37522 93.43447 36838 ft 483 kts 95°
2026-04-15 21:45 55.36692 93.55157 36846 ft 482 kts 96°
2026-04-15 21:46 55.35853 93.66851 36851 ft 482 kts 96°
2026-04-15 21:46 55.35003 93.78548 36850 ft 482 kts 96°
2026-04-15 21:47 55.34140 93.90241 36858 ft 482 kts 96°
2026-04-15 21:47 55.33268 94.01924 36855 ft 482 kts 96°
2026-04-15 21:48 55.32385 94.13592 36858 ft 482 kts 96°
2026-04-15 21:48 55.31491 94.25252 36861 ft 481 kts 97°
2026-04-15 21:49 55.30586 94.36886 36862 ft 481 kts 97°
2026-04-15 21:49 55.29671 94.48516 36859 ft 481 kts 97°
2026-04-15 21:50 55.28748 94.60132 36862 ft 480 kts 97°
2026-04-15 21:50 55.27817 94.71663 36863 ft 480 kts 97°
2026-04-15 21:51 55.26871 94.83250 36867 ft 480 kts 97°
2026-04-15 21:51 55.26017 94.94846 36871 ft 479 kts 96°
2026-04-15 21:52 55.25333 95.04493 36878 ft 479 kts 96°
2026-04-15 21:52 55.24510 95.16084 36880 ft 479 kts 96°
2026-04-15 21:53 55.23679 95.27676 36877 ft 479 kts 96°
2026-04-15 21:53 55.22834 95.39250 36876 ft 478 kts 96°
2026-04-15 21:54 55.21982 95.50799 36875 ft 478 kts 97°
2026-04-15 21:54 55.21116 95.62350 36881 ft 478 kts 97°
2026-04-15 21:55 55.20243 95.73892 36879 ft 478 kts 97°
2026-04-15 21:55 55.19362 95.85352 36882 ft 478 kts 97°
2026-04-15 21:56 55.18466 95.96883 36879 ft 478 kts 97°
2026-04-15 21:56 55.17559 96.08397 36880 ft 477 kts 97°
2026-04-15 21:57 55.16643 96.19892 36883 ft 477 kts 97°
2026-04-15 21:57 55.15714 96.31385 36883 ft 477 kts 97°
2026-04-15 21:58 55.14778 96.42859 36888 ft 476 kts 97°
2026-04-15 21:58 55.13829 96.54341 36891 ft 476 kts 98°
2026-04-15 21:59 55.12876 96.65743 36893 ft 476 kts 98°
2026-04-15 21:59 55.11904 96.77218 36896 ft 476 kts 98°
2026-04-15 22:00 55.10926 96.88662 36898 ft 476 kts 98°
2026-04-15 22:00 55.09935 97.00091 36900 ft 476 kts 98°
2026-04-15 22:01 55.08942 97.11449 36907 ft 476 kts 98°
2026-04-15 22:01 55.07857 97.22849 36902 ft 476 kts 99°
2026-04-15 22:02 55.06773 97.34232 36910 ft 476 kts 99°
2026-04-15 22:02 55.05677 97.45617 36913 ft 476 kts 99°
2026-04-15 22:03 55.04569 97.56997 36913 ft 476 kts 99°
2026-04-15 22:03 55.03452 97.68365 36914 ft 475 kts 99°
2026-04-15 22:04 55.02324 97.79711 36919 ft 475 kts 99°
2026-04-15 22:04 55.01187 97.91058 36920 ft 475 kts 100°
2026-04-15 22:05 55.00041 98.02390 36919 ft 475 kts 100°
2026-04-15 22:05 54.98891 98.13637 36922 ft 475 kts 100°
2026-04-15 22:06 54.97722 98.24965 36928 ft 475 kts 100°
2026-04-15 22:06 54.96542 98.36276 36930 ft 474 kts 100°
2026-04-15 22:07 54.95354 98.47574 36933 ft 474 kts 101°
2026-04-15 22:07 54.94155 98.58859 36938 ft 474 kts 101°
2026-04-15 22:08 54.92949 98.70120 36943 ft 473 kts 101°
2026-04-15 22:08 54.91739 98.81293 36943 ft 473 kts 101°
2026-04-15 22:09 54.90514 98.92523 36945 ft 473 kts 101°
2026-04-15 22:09 54.89278 99.03746 36946 ft 472 kts 101°
2026-04-15 22:10 54.87974 99.14922 36950 ft 472 kts 103°
2026-04-15 22:10 54.86587 99.26072 36951 ft 472 kts 102°
2026-04-15 22:11 54.85239 99.37226 36945 ft 472 kts 102°
2026-04-15 22:11 54.83853 99.48356 36944 ft 472 kts 102°
2026-04-15 22:12 54.82481 99.59412 36947 ft 471 kts 102°
2026-04-15 22:12 54.81083 99.70518 36945 ft 471 kts 102°
2026-04-15 22:13 54.79679 99.81620 36944 ft 471 kts 102°
2026-04-15 22:13 54.78264 99.92715 36942 ft 471 kts 103°
2026-04-15 22:14 54.76841 100.03794 36942 ft 471 kts 103°
2026-04-15 22:14 54.75408 100.14848 36941 ft 470 kts 103°
2026-04-15 22:15 54.73974 100.25828 36943 ft 470 kts 103°
2026-04-15 22:15 54.72523 100.36857 36943 ft 470 kts 103°
2026-04-15 22:16 54.71064 100.47875 36939 ft 470 kts 103°
2026-04-15 22:16 54.69593 100.58879 36941 ft 470 kts 103°
2026-04-15 22:17 54.68112 100.69883 36935 ft 469 kts 103°
2026-04-15 22:17 54.66623 100.80861 36940 ft 469 kts 103°
2026-04-15 22:18 54.65135 100.91762 36939 ft 469 kts 103°
2026-04-15 22:18 54.63630 101.02710 36941 ft 469 kts 103°
2026-04-15 22:19 54.62112 101.13658 36953 ft 469 kts 104°
2026-04-15 22:19 54.60587 101.24584 36966 ft 468 kts 104°
2026-04-15 22:20 54.59052 101.35493 36974 ft 468 kts 104°
2026-04-15 22:20 54.57510 101.46391 36979 ft 468 kts 104°
2026-04-15 22:21 54.55960 101.57267 36983 ft 467 kts 104°
2026-04-15 22:21 54.54410 101.68060 36983 ft 467 kts 104°
2026-04-15 22:22 54.52840 101.78907 36980 ft 467 kts 104°
2026-04-15 22:22 54.51261 101.89754 36984 ft 467 kts 104°
2026-04-15 22:23 54.49672 102.00593 36984 ft 466 kts 104°
2026-04-15 22:23 54.48076 102.11415 36983 ft 466 kts 104°
2026-04-15 22:24 54.46469 102.22213 36987 ft 466 kts 104°
2026-04-15 22:24 54.44854 102.33006 36988 ft 466 kts 105°
2026-04-15 22:25 54.43229 102.43794 36991 ft 466 kts 105°
2026-04-15 22:25 54.41597 102.54563 36993 ft 466 kts 105°
2026-04-15 22:26 54.39964 102.65260 36996 ft 466 kts 105°
2026-04-15 22:26 54.38310 102.76018 36997 ft 466 kts 105°
2026-04-15 22:27 54.36661 102.86755 36993 ft 465 kts 105°
2026-04-15 22:27 54.35036 102.97493 36994 ft 465 kts 105°
2026-04-15 22:28 54.33381 103.08215 36997 ft 465 kts 105°
2026-04-15 22:28 54.31737 103.18860 36993 ft 465 kts 105°
2026-04-15 22:29 54.29942 103.29498 36994 ft 465 kts 107°
2026-04-15 22:29 54.28100 103.40102 36999 ft 464 kts 107°
2026-04-15 22:30 54.26237 103.50687 36997 ft 465 kts 107°
2026-04-15 22:30 54.24368 103.61263 36998 ft 465 kts 107°
2026-04-15 22:31 54.22490 103.71834 36994 ft 464 kts 108°
2026-04-15 22:31 54.20602 103.82387 36993 ft 464 kts 108°
2026-04-15 22:32 54.18720 103.92861 36992 ft 464 kts 108°
2026-04-15 22:32 54.16815 104.03394 36993 ft 464 kts 108°
2026-04-15 22:33 54.14900 104.13920 36996 ft 464 kts 108°
2026-04-15 22:33 54.12976 104.24434 36995 ft 464 kts 108°
2026-04-15 22:34 54.11043 104.34941 36995 ft 464 kts 108°
2026-04-15 22:34 54.09104 104.45427 36995 ft 464 kts 108°
2026-04-15 22:35 54.07157 104.55893 37003 ft 464 kts 108°
2026-04-15 22:35 54.05200 104.66352 37003 ft 463 kts 109°
2026-04-15 22:36 54.03247 104.76727 37008 ft 463 kts 109°
2026-04-15 22:36 54.01273 104.87162 37007 ft 463 kts 109°
2026-04-15 22:37 53.99291 104.97596 37010 ft 463 kts 109°
2026-04-15 22:37 53.97303 105.08020 37010 ft 463 kts 109°
2026-04-15 22:38 53.95304 105.18430 37018 ft 463 kts 109°
2026-04-15 22:38 53.93299 105.28821 37015 ft 463 kts 109°
2026-04-15 22:39 53.91296 105.39140 37020 ft 463 kts 109°
2026-04-15 22:39 53.89272 105.49517 37025 ft 463 kts 109°
2026-04-15 22:40 53.87241 105.59872 37032 ft 463 kts 110°
2026-04-15 22:40 53.85199 105.70226 37030 ft 463 kts 110°
2026-04-15 22:41 53.82136 105.85654 37038 ft 462 kts 110°
2026-04-15 22:41 53.80077 105.95947 37040 ft 461 kts 109°
2026-04-15 22:42 53.78011 106.06230 37047 ft 461 kts 110°
2026-04-15 22:42 53.75948 106.16446 37045 ft 461 kts 110°
2026-04-15 22:43 53.73868 106.26694 37049 ft 461 kts 110°
2026-04-15 22:43 53.71777 106.36944 37051 ft 461 kts 110°
2026-04-15 22:44 53.70032 106.45450 37048 ft 461 kts 110°
2026-04-15 22:44 53.67925 106.55674 37054 ft 461 kts 110°
2026-04-15 22:45 53.65809 106.65894 37059 ft 461 kts 110°
2026-04-15 22:45 53.63685 106.76101 37059 ft 461 kts 110°
2026-04-15 22:46 53.61551 106.86299 37059 ft 461 kts 110°
2026-04-15 22:46 53.59423 106.96422 37060 ft 461 kts 110°
2026-04-15 22:47 53.57271 107.06601 37060 ft 462 kts 110°
2026-04-15 22:47 53.55112 107.16770 37057 ft 462 kts 111°
2026-04-15 22:48 53.52940 107.26947 37060 ft 461 kts 111°
2026-04-15 22:48 53.50764 107.37091 37055 ft 462 kts 111°
2026-04-15 22:49 53.48578 107.47235 37053 ft 461 kts 111°
2026-04-15 22:49 53.46384 107.57353 37050 ft 461 kts 111°
2026-04-15 22:50 53.44198 107.67395 37050 ft 461 kts 111°
2026-04-15 22:50 53.41989 107.77493 37037 ft 461 kts 111°
2026-04-15 22:51 53.39771 107.87587 37039 ft 461 kts 111°
2026-04-15 22:51 53.37546 107.97658 37042 ft 461 kts 112°
2026-04-15 22:52 53.35309 108.07732 37035 ft 461 kts 112°
2026-04-15 22:52 53.33059 108.17808 37034 ft 461 kts 112°
2026-04-15 22:53 53.30817 108.27797 37034 ft 462 kts 112°
2026-04-15 22:53 53.28553 108.37845 37038 ft 462 kts 112°
2026-04-15 22:54 53.26276 108.47892 37040 ft 462 kts 112°
2026-04-15 22:54 53.23990 108.57931 37041 ft 462 kts 112°
2026-04-15 22:55 53.21693 108.67970 37047 ft 462 kts 112°
2026-04-15 22:55 53.19390 108.77996 37055 ft 463 kts 112°
2026-04-15 22:56 53.17079 108.88006 37055 ft 463 kts 112°
2026-04-15 22:56 53.14757 108.98007 37064 ft 463 kts 113°
2026-04-15 22:57 53.12423 109.08018 37067 ft 464 kts 113°
2026-04-15 22:57 53.10096 109.17960 37070 ft 464 kts 113°
2026-04-15 22:58 53.07741 109.27967 37073 ft 464 kts 113°
2026-04-15 22:58 53.05381 109.37955 37077 ft 464 kts 113°
2026-04-15 22:59 53.03009 109.47941 37074 ft 464 kts 113°
2026-04-15 22:59 53.00631 109.57904 37080 ft 464 kts 114°
2026-04-15 23:00 52.98242 109.67873 37082 ft 464 kts 114°
2026-04-15 23:00 52.95864 109.77754 37078 ft 465 kts 114°
2026-04-15 23:01 52.93460 109.87697 37079 ft 465 kts 114°
2026-04-15 23:01 52.91045 109.97629 37088 ft 465 kts 114°
2026-04-15 23:02 52.88619 110.07557 37088 ft 465 kts 114°
2026-04-15 23:02 52.86184 110.17477 37092 ft 464 kts 114°
2026-04-15 23:03 52.83747 110.27367 37086 ft 464 kts 114°
2026-04-15 23:03 52.81300 110.37252 37087 ft 464 kts 114°
2026-04-15 23:04 52.78845 110.47124 37081 ft 464 kts 114°
2026-04-15 23:04 52.76382 110.56976 37082 ft 464 kts 114°
2026-04-15 23:05 52.73930 110.66750 37076 ft 464 kts 115°
2026-04-15 23:05 52.71456 110.76572 37082 ft 463 kts 115°
2026-04-15 23:06 52.68973 110.86377 37076 ft 464 kts 115°
2026-04-15 23:06 52.66481 110.96183 37066 ft 464 kts 115°
2026-04-15 23:07 52.63971 111.06005 37062 ft 464 kts 115°
2026-04-15 23:07 52.61482 111.15712 37056 ft 464 kts 115°
2026-04-15 23:08 52.58964 111.25487 37046 ft 463 kts 115°
2026-04-15 23:08 52.56441 111.35238 37045 ft 463 kts 115°
2026-04-15 23:09 52.53910 111.44973 37038 ft 463 kts 115°
2026-04-15 23:09 52.51369 111.54708 37034 ft 464 kts 116°
2026-04-15 23:10 52.48771 111.64394 37033 ft 463 kts 116°
2026-04-15 23:10 52.46186 111.74014 37025 ft 464 kts 116°
2026-04-15 23:11 52.43589 111.83697 37024 ft 464 kts 116°
2026-04-15 23:11 52.40974 111.93372 37022 ft 464 kts 116°
2026-04-15 23:12 52.38352 112.03052 37014 ft 465 kts 116°
2026-04-15 23:12 52.35720 112.12717 37005 ft 465 kts 116°
2026-04-15 23:13 52.33084 112.22367 37004 ft 465 kts 117°
2026-04-15 23:13 52.30438 112.32006 36995 ft 465 kts 117°
2026-04-15 23:14 52.27781 112.41645 36989 ft 465 kts 117°
2026-04-15 23:14 52.25118 112.51264 36989 ft 465 kts 117°
2026-04-15 23:15 52.22436 112.60813 36981 ft 465 kts 117°
2026-04-15 23:15 52.19729 112.70406 36979 ft 466 kts 117°
2026-04-15 23:16 52.17017 112.79988 36974 ft 466 kts 118°
2026-04-15 23:16 52.14290 112.89568 36961 ft 466 kts 118°
2026-04-15 23:17 52.11560 112.99133 36962 ft 466 kts 118°
2026-04-15 23:17 52.08821 113.08687 36957 ft 466 kts 118°
2026-04-15 23:18 52.06091 113.18174 36962 ft 466 kts 118°
2026-04-15 23:18 52.03133 113.27509 36956 ft 462 kts 127°
2026-04-15 23:19 51.99034 113.35399 36958 ft 453 kts 142°
2026-04-15 23:19 51.94232 113.41976 36958 ft 452 kts 145°
2026-04-15 23:20 51.89412 113.48530 36960 ft 452 kts 145°
2026-04-15 23:20 51.84617 113.55015 36961 ft 452 kts 145°
2026-04-15 23:21 51.79790 113.61531 36966 ft 451 kts 145°
2026-04-15 23:21 51.74963 113.68026 36968 ft 452 kts 145°
2026-04-15 23:22 51.70126 113.74517 36977 ft 452 kts 146°
2026-04-15 23:22 51.65288 113.80990 36969 ft 452 kts 146°
2026-04-15 23:23 51.60451 113.87443 36983 ft 452 kts 146°
2026-04-15 23:23 51.55630 113.93831 36982 ft 452 kts 146°
2026-04-15 23:24 51.50779 114.00248 36987 ft 451 kts 146°
2026-04-15 23:24 51.45924 114.06650 36991 ft 451 kts 146°
2026-04-15 23:25 51.41068 114.13035 36999 ft 451 kts 146°
2026-04-15 23:25 51.36210 114.19403 36998 ft 451 kts 146°
2026-04-15 23:26 51.31350 114.25756 37003 ft 451 kts 146°
2026-04-15 23:26 51.26516 114.32060 37006 ft 451 kts 146°
2026-04-15 23:27 51.21652 114.38384 37007 ft 451 kts 146°
2026-04-15 23:27 51.16789 114.44688 37015 ft 451 kts 147°
2026-04-15 23:28 51.11983 114.51153 37023 ft 455 kts 140°
2026-04-15 23:28 51.08029 114.59126 37025 ft 465 kts 126°
2026-04-15 23:29 51.04838 114.68087 37029 ft 465 kts 124°
2026-04-15 23:29 51.01636 114.77027 37032 ft 466 kts 123°
2026-04-15 23:30 50.98434 114.85978 37036 ft 466 kts 124°
2026-04-15 23:30 50.95242 114.94844 37043 ft 465 kts 124°
2026-04-15 23:31 50.92028 115.03759 37045 ft 465 kts 124°
2026-04-15 23:31 50.88805 115.12658 37053 ft 465 kts 124°
2026-04-15 23:32 50.85578 115.21539 37058 ft 465 kts 124°
2026-04-15 23:32 50.82337 115.30424 37064 ft 465 kts 124°
2026-04-15 23:33 50.79641 115.37793 37070 ft 465 kts 124°
2026-04-15 23:33 50.76397 115.46637 37072 ft 465 kts 124°
2026-04-15 23:34 50.73145 115.55469 37080 ft 465 kts 124°
2026-04-15 23:36 50.61736 115.86216 37096 ft 464 kts 125°
2026-04-15 23:36 50.58459 115.94979 37094 ft 465 kts 125°
2026-04-15 23:37 50.55047 116.03592 37094 ft 463 kts 127°
2026-04-15 23:37 50.51646 116.12136 37094 ft 463 kts 127°
2026-04-15 23:38 50.48206 116.20709 37096 ft 463 kts 127°
2026-04-15 23:38 50.44768 116.29260 37099 ft 463 kts 127°
2026-04-15 23:39 50.41328 116.37789 37098 ft 463 kts 127°
2026-04-15 23:39 50.37480 116.45762 37101 ft 454 kts 140°
2026-04-15 23:40 50.32767 116.52073 37100 ft 447 kts 148°
2026-04-15 23:40 50.27906 116.58141 37101 ft 447 kts 148°
2026-04-15 23:41 50.23036 116.64194 37104 ft 447 kts 148°
2026-04-15 23:41 50.18165 116.70228 37100 ft 447 kts 148°
2026-04-15 23:42 50.13289 116.76258 37113 ft 447 kts 148°
2026-04-15 23:42 50.08412 116.82262 37103 ft 447 kts 148°
2026-04-15 23:43 50.03531 116.88260 37100 ft 446 kts 148°
2026-04-15 23:43 49.98655 116.94232 37097 ft 446 kts 148°
2026-04-15 23:44 49.93804 117.00156 37104 ft 446 kts 148°
2026-04-15 23:44 49.88926 117.06102 37103 ft 446 kts 148°
2026-04-15 23:45 49.84044 117.12037 37100 ft 446 kts 148°
2026-04-15 23:45 49.79164 117.17951 37103 ft 445 kts 148°
2026-04-15 23:46 49.74283 117.23849 37103 ft 445 kts 148°
2026-04-15 23:46 49.69404 117.29735 37097 ft 445 kts 148°
2026-04-15 23:47 49.64522 117.35606 37096 ft 445 kts 149°
2026-04-15 23:47 49.60000 117.42243 36987 ft 451 kts 139°
2026-04-15 23:47 49.57936 117.45837 36431 ft 447 kts 134°
2026-04-15 23:48 49.56096 117.49677 35852 ft 442 kts 133°
2026-04-15 23:48 49.54268 117.53451 35279 ft 437 kts 133°
2026-04-15 23:48 49.52458 117.57170 34706 ft 433 kts 134°
2026-04-15 23:48 49.50667 117.60876 34138 ft 429 kts 134°
2026-04-15 23:49 49.48914 117.64505 33539 ft 426 kts 134°
2026-04-15 23:49 49.47158 117.68129 32981 ft 421 kts 134°
2026-04-15 23:49 49.45414 117.71712 32432 ft 417 kts 134°
2026-04-15 23:49 49.43683 117.75267 31885 ft 414 kts 134°
2026-04-15 23:50 49.41967 117.78791 31344 ft 411 kts 134°
2026-04-15 23:50 49.40254 117.82304 30809 ft 409 kts 134°
2026-04-15 23:50 49.38552 117.85789 30274 ft 408 kts 134°
2026-04-15 23:51 49.35167 117.92711 29156 ft 402 kts 134°
2026-04-15 23:51 49.33488 117.96132 28631 ft 399 kts 134°
2026-04-15 23:51 49.31823 117.99524 28106 ft 397 kts 134°
2026-04-15 23:51 49.30164 118.02897 27621 ft 395 kts 134°
2026-04-15 23:52 49.28515 118.06248 27107 ft 393 kts 134°
2026-04-15 23:52 49.27133 118.09902 26577 ft 405 kts 115°
2026-04-15 23:52 49.26527 118.14143 26047 ft 411 kts 96°
2026-04-15 23:52 49.26379 118.18461 25527 ft 411 kts 94°
2026-04-15 23:53 49.26279 118.22842 24984 ft 412 kts 93°
2026-04-15 23:53 49.26166 118.27229 24441 ft 412 kts 94°
2026-04-15 23:53 49.26020 118.31610 23894 ft 412 kts 94°
2026-04-15 23:53 49.25867 118.35998 23306 ft 412 kts 94°
2026-04-15 23:54 49.25735 118.40372 22751 ft 409 kts 94°
2026-04-15 23:54 49.25600 118.44713 22214 ft 407 kts 94°
2026-04-15 23:54 49.25460 118.49031 21675 ft 405 kts 94°
2026-04-15 23:54 49.25314 118.53330 21141 ft 404 kts 94°
2026-04-15 23:55 49.25173 118.57614 20608 ft 402 kts 94°
2026-04-15 23:55 49.25030 118.61885 20078 ft 401 kts 94°
2026-04-15 23:55 49.24887 118.66147 19552 ft 400 kts 94°
2026-04-15 23:55 49.24739 118.70389 19025 ft 398 kts 94°
2026-04-15 23:56 49.24591 118.74614 18499 ft 397 kts 94°
2026-04-15 23:56 49.24447 118.78812 17939 ft 394 kts 94°
2026-04-15 23:56 49.24298 118.82923 17418 ft 390 kts 94°
2026-04-15 23:56 49.24153 118.87043 16906 ft 386 kts 94°
2026-04-15 23:57 49.24003 118.91126 16389 ft 382 kts 94°
2026-04-15 23:57 49.23858 118.95170 15897 ft 379 kts 94°
2026-04-15 23:57 49.23708 118.99181 15396 ft 376 kts 94°
2026-04-15 23:57 49.23560 119.03169 14900 ft 374 kts 94°
2026-04-15 23:58 49.23415 119.07091 14411 ft 362 kts 94°
2026-04-15 23:58 49.23272 119.10860 13943 ft 349 kts 94°
2026-04-15 23:58 49.23134 119.14513 13459 ft 338 kts 94°
2026-04-15 23:58 49.22993 119.18046 13020 ft 328 kts 94°
2026-04-15 23:59 49.22863 119.21499 12587 ft 321 kts 93°
2026-04-15 23:59 49.22726 119.24877 12168 ft 316 kts 93°
2026-04-15 23:59 49.22599 119.28208 11754 ft 312 kts 93°
2026-04-15 23:59 49.22465 119.31501 11347 ft 308 kts 92°
2026-04-16 00:00 49.22338 119.34757 10941 ft 305 kts 92°
2026-04-16 00:00 49.22206 119.37946 10543 ft 303 kts 92°
2026-04-16 00:00 49.22077 119.41154 10143 ft 302 kts 92°
2026-04-16 00:00 49.21946 119.44349 9723 ft 300 kts 92°
2026-04-16 00:01 49.21817 119.47511 9317 ft 297 kts 92°
2026-04-16 00:01 49.21688 119.50641 8928 ft 293 kts 92°
2026-04-16 00:01 49.21559 119.53695 8546 ft 281 kts 92°
2026-04-16 00:01 49.21437 119.56632 8180 ft 272 kts 92°
2026-04-16 00:02 49.21315 119.59479 7823 ft 265 kts 92°
2026-04-16 00:02 49.21198 119.62254 7477 ft 259 kts 92°
2026-04-16 00:02 49.21083 119.64984 7135 ft 254 kts 92°
2026-04-16 00:02 49.20969 119.67655 6807 ft 250 kts 92°
2026-04-16 00:03 49.20851 119.70310 6472 ft 251 kts 92°
2026-04-16 00:03 49.20738 119.72963 6130 ft 249 kts 93°
2026-04-16 00:03 49.20621 119.75604 5795 ft 249 kts 93°
2026-04-16 00:03 49.20508 119.78246 5470 ft 249 kts 92°
2026-04-16 00:04 49.20390 119.80881 5139 ft 248 kts 93°
2026-04-16 00:04 49.20169 119.83443 5018 ft 246 kts 102°
2026-04-16 00:04 49.19845 119.86025 4997 ft 247 kts 98°
2026-04-16 00:04 49.19565 119.88617 4994 ft 247 kts 99°
2026-04-16 00:05 49.19263 119.91192 4993 ft 245 kts 100°
2026-04-16 00:05 49.18956 119.93712 4990 ft 237 kts 100°
2026-04-16 00:05 49.18659 119.96189 4980 ft 238 kts 100°
2026-04-16 00:05 49.18356 119.98693 4984 ft 242 kts 100°
2026-04-16 00:06 49.18053 120.01233 4981 ft 244 kts 100°
2026-04-16 00:06 49.17745 120.03787 4998 ft 246 kts 100°
2026-04-16 00:06 49.17430 120.06363 4991 ft 246 kts 99°
2026-04-16 00:06 49.17127 120.08879 4989 ft 236 kts 100°
2026-04-16 00:07 49.16829 120.11340 4986 ft 235 kts 100°
2026-04-16 00:07 49.16532 120.13798 4987 ft 235 kts 99°
2026-04-16 00:07 49.16501 120.16265 4973 ft 232 kts 72°
2026-04-16 00:07 49.17232 120.18395 4976 ft 224 kts 43°
2026-04-16 00:08 49.18484 120.19700 4975 ft 215 kts 16°
2026-04-16 00:08 49.19920 120.19991 4982 ft 206 kts 350°
2026-04-16 00:08 49.21243 120.19323 4980 ft 199 kts 325°
2026-04-16 00:08 49.22230 120.17929 4979 ft 196 kts 302°
2026-04-16 00:09 49.22751 120.16036 4983 ft 194 kts 281°
2026-04-16 00:09 49.22743 120.13966 4990 ft 197 kts 266°
2026-04-16 00:09 49.22536 120.11894 4990 ft 198 kts 263°
2026-04-16 00:09 49.22363 120.09816 4990 ft 194 kts 266°
2026-04-16 00:10 49.22230 120.07793 5006 ft 181 kts 266°
2026-04-16 00:10 49.22113 120.06032 4984 ft 152 kts 266°
2026-04-16 00:10 49.22018 120.04653 4970 ft 112 kts 267°
2026-04-16 00:10 49.21946 120.03530 4844 ft 102 kts 267°
2026-04-16 00:11 49.21876 120.02464 4706 ft 100 kts 267°
2026-04-16 00:11 49.21808 120.01429 4568 ft 98 kts 267°
2026-04-16 00:11 49.21742 120.00394 4433 ft 97 kts 268°
2026-04-16 00:11 49.21675 119.99361 4290 ft 98 kts 268°
2026-04-16 00:12 49.21605 119.98326 4155 ft 98 kts 268°
2026-04-16 00:12 49.21539 119.97295 4018 ft 97 kts 268°
2026-04-16 00:12 49.21473 119.96281 3888 ft 95 kts 268°
2026-04-16 00:12 49.21409 119.95273 3748 ft 95 kts 267°
2026-04-16 00:13 49.21344 119.94267 3618 ft 96 kts 269°
2026-04-16 00:13 49.21274 119.93240 3487 ft 97 kts 267°
2026-04-16 00:13 49.21209 119.92208 3350 ft 98 kts 266°
2026-04-16 00:13 49.21145 119.91193 3194 ft 95 kts 268°
2026-04-16 00:14 49.21077 119.90203 3033 ft 93 kts 266°
2026-04-16 00:14 49.21015 119.89239 2879 ft 92 kts 266°
2026-04-16 00:14 49.20952 119.88272 2729 ft 91 kts 264°
2026-04-16 00:14 49.20893 119.87296 2576 ft 93 kts 267°
2026-04-16 00:15 49.20817 119.86305 2432 ft 94 kts 265°
2026-04-16 00:15 49.20770 119.85308 2302 ft 93 kts 266°
2026-04-16 00:15 49.20708 119.84324 2198 ft 91 kts 262°
2026-04-16 00:15 49.20650 119.83515 2161 ft 51 kts 265°
2026-04-16 00:16 49.20630 119.83179 2160 ft 26 kts 265°
2026-04-16 00:16 49.20612 119.82918 2161 ft 24 kts 264°
2026-04-16 00:16 49.20594 119.82672 2161 ft 22 kts 264°
2026-04-16 00:16 49.20579 119.82449 2161 ft 17 kts 264°
2026-04-16 00:17 49.20582 119.82280 2156 ft 16 kts 310°
2026-04-16 00:17 49.20690 119.82247 2159 ft 16 kts 355°
2026-04-16 00:17 49.20800 119.82227 2159 ft 17 kts 353°
2026-04-16 00:17 49.20916 119.82201 2158 ft 16 kts 327°
2026-04-16 00:18 49.20925 119.82043 2161 ft 16 kts 263°
2026-04-16 00:18 49.20913 119.81880 2161 ft 15 kts 264°
2026-04-16 00:18 49.20901 119.81720 2161 ft 15 kts 255°
2026-04-16 00:18 49.20815 119.81676 2161 ft 15 kts 172°
2026-04-16 00:19 49.20709 119.81677 2159 ft 16 kts 203°
2026-04-16 00:19 49.20674 119.81527 2158 ft 15 kts 264°
2026-04-16 00:19 49.20663 119.81366 2160 ft 15 kts 264°
2026-04-16 00:19 49.20652 119.81206 2160 ft 15 kts 264°
2026-04-16 00:20 49.20641 119.81054 2161 ft 14 kts 263°
2026-04-16 00:20 49.20630 119.80908 2161 ft 14 kts 265°
2026-04-16 00:20 49.20621 119.80755 2160 ft 15 kts 264°
2026-04-16 00:20 49.20639 119.80618 2159 ft 14 kts 335°
2026-04-16 00:21 49.20736 119.80597 2161 ft 15 kts 354°
2026-04-16 00:21 49.20822 119.80577 2161 ft 6 kts 333°
2026-04-16 00:21 49.20861 119.80534 2161 ft 6 kts 324°
2026-04-16 00:21 49.20889 119.80528 2159 ft 0 kts